createdAt,value
2019-02-12T00:00:20.699Z,859.90
2019-02-12T00:01:20.561Z,859.89
2019-02-12T00:02:20.428Z,859.88
2019-02-12T00:03:20.292Z,859.87
2019-02-12T00:04:20.151Z,859.86
2019-02-12T00:05:20.018Z,859.88
2019-02-12T00:06:19.882Z,859.93
2019-02-12T00:07:19.744Z,859.94
2019-02-12T00:08:19.611Z,859.96
2019-02-12T00:09:19.471Z,859.94
2019-02-12T00:10:19.334Z,859.96
2019-02-12T00:11:19.203Z,860.00
2019-02-12T00:12:19.061Z,859.98
2019-02-12T00:13:18.923Z,860.00
2019-02-12T00:14:18.786Z,860.02
2019-02-12T00:15:18.651Z,860.05
2019-02-12T00:16:18.514Z,860.07
2019-02-12T00:17:18.380Z,860.08
2019-02-12T00:18:18.243Z,860.10
2019-02-12T00:19:18.104Z,860.11
2019-02-12T00:20:17.969Z,860.12
2019-02-12T00:21:17.833Z,860.14
2019-02-12T00:22:17.697Z,860.11
2019-02-12T00:23:17.560Z,860.09
2019-02-12T00:24:17.428Z,860.14
2019-02-12T00:25:17.288Z,860.10
2019-02-12T00:26:17.149Z,860.17
2019-02-12T00:27:17.018Z,860.20
2019-02-12T00:28:16.878Z,860.24
2019-02-12T00:29:16.743Z,860.21
2019-02-12T00:30:16.614Z,860.24
2019-02-12T00:31:16.469Z,860.25
2019-02-12T00:32:16.333Z,860.30
2019-02-12T00:33:16.196Z,860.31
2019-02-12T00:34:16.062Z,860.33
2019-02-12T00:35:15.930Z,860.32
2019-02-12T00:36:15.787Z,860.31
2019-02-12T00:37:15.649Z,860.35
2019-02-12T00:38:15.513Z,860.33
2019-02-12T00:39:15.377Z,860.33
2019-02-12T00:40:15.242Z,860.35
2019-02-12T00:41:15.105Z,860.32
2019-02-12T00:42:14.970Z,860.38
2019-02-12T00:43:14.836Z,860.41
2019-02-12T00:44:14.696Z,860.44
2019-02-12T00:45:14.559Z,860.47
2019-02-12T00:46:14.431Z,860.49
2019-02-12T00:47:14.286Z,860.52
2019-02-12T00:48:14.151Z,860.60
2019-02-12T00:49:14.014Z,860.64
2019-02-12T00:50:13.877Z,860.62
2019-02-12T00:51:17.913Z,860.64
2019-02-12T00:52:13.607Z,860.61
2019-02-12T00:53:13.474Z,860.60
2019-02-12T00:54:13.337Z,860.62
2019-02-12T00:55:13.197Z,860.64
2019-02-12T00:56:13.061Z,860.65
2019-02-12T00:57:12.923Z,860.68
2019-02-12T00:58:12.787Z,860.74
2019-02-12T00:59:12.652Z,860.80
2019-02-12T01:00:12.517Z,860.78
2019-02-12T01:01:12.380Z,860.83
2019-02-12T01:02:12.282Z,860.80
2019-02-12T01:03:12.108Z,860.84
2019-02-12T01:04:11.974Z,860.85
2019-02-12T01:05:11.836Z,860.90
2019-02-12T01:06:11.701Z,860.94
2019-02-12T01:07:11.563Z,860.93
2019-02-12T01:08:11.425Z,860.96
2019-02-12T01:09:11.289Z,860.98
2019-02-12T01:10:11.153Z,860.99
2019-02-12T01:11:11.016Z,860.99
2019-02-12T01:12:10.880Z,860.97
2019-02-12T01:13:10.798Z,861.01
2019-02-12T01:14:10.609Z,861.03
2019-02-12T01:15:10.475Z,861.01
2019-02-12T01:16:10.336Z,860.94
2019-02-12T01:17:10.202Z,860.94
2019-02-12T01:18:10.065Z,860.92
2019-02-12T01:19:09.927Z,861.00
2019-02-12T01:20:09.793Z,861.07
2019-02-12T01:21:09.657Z,861.12
2019-02-12T01:22:09.519Z,861.13
2019-02-12T01:23:09.383Z,861.15
2019-02-12T01:24:09.248Z,861.19
2019-02-12T01:25:09.114Z,861.20
2019-02-12T01:26:08.977Z,861.24
2019-02-12T01:27:08.839Z,861.26
2019-02-12T01:28:08.704Z,861.26
2019-02-12T01:29:08.568Z,861.28
2019-02-12T01:30:08.432Z,861.32
2019-02-12T01:31:08.307Z,861.32
2019-02-12T01:32:08.171Z,861.31
2019-02-12T01:33:08.035Z,861.29
2019-02-12T01:34:07.887Z,861.27
2019-02-12T01:35:07.755Z,861.31
2019-02-12T01:36:07.617Z,861.28
2019-02-12T01:37:07.479Z,861.32
2019-02-12T01:38:07.345Z,861.34
2019-02-12T01:39:07.211Z,861.33
2019-02-12T01:40:07.072Z,861.36
2019-02-12T01:41:06.934Z,861.39
2019-02-12T01:42:06.801Z,861.38
2019-02-12T01:43:06.664Z,861.40
2019-02-12T01:44:06.528Z,861.39
2019-02-12T01:45:06.388Z,861.35
2019-02-12T01:46:06.256Z,861.30
2019-02-12T01:47:06.118Z,861.25
2019-02-12T01:48:05.985Z,861.23
2019-02-12T01:49:05.847Z,861.24
2019-02-12T01:50:05.710Z,861.26
2019-02-12T01:51:05.573Z,861.26
2019-02-12T01:52:05.435Z,861.27
2019-02-12T01:53:05.304Z,861.25
2019-02-12T01:54:05.164Z,861.28
2019-02-12T01:55:05.029Z,861.29
2019-02-12T01:56:04.893Z,861.31
2019-02-12T01:57:04.757Z,861.36
2019-02-12T01:58:04.622Z,861.31
2019-02-12T01:59:04.484Z,861.33
2019-02-12T02:00:04.349Z,861.24
2019-02-12T02:01:04.217Z,861.27
2019-02-12T02:02:04.074Z,861.28
2019-02-12T02:03:03.937Z,861.23
2019-02-12T02:04:03.801Z,861.25
2019-02-12T02:05:03.670Z,861.30
2019-02-12T02:06:03.531Z,861.36
2019-02-12T02:07:03.393Z,861.36
2019-02-12T02:08:03.255Z,861.40
2019-02-12T02:09:03.122Z,861.44
2019-02-12T02:10:02.982Z,861.45
2019-02-12T02:11:02.849Z,861.44
2019-02-12T02:12:02.723Z,861.43
2019-02-12T02:13:02.572Z,861.43
2019-02-12T02:14:02.451Z,861.36
2019-02-12T02:15:02.298Z,861.35
2019-02-12T02:16:02.165Z,861.33
2019-02-12T02:17:02.025Z,861.31
2019-02-12T02:18:01.891Z,861.34
2019-02-12T02:19:01.751Z,861.40
2019-02-12T02:20:01.619Z,861.42
2019-02-12T02:21:01.478Z,861.44
2019-02-12T02:22:01.343Z,861.44
2019-02-12T02:23:01.204Z,861.47
2019-02-12T02:24:01.072Z,861.47
2019-02-12T02:25:00.932Z,861.53
2019-02-12T02:26:00.796Z,861.58
2019-02-12T02:27:00.657Z,861.59
2019-02-12T02:28:00.522Z,861.55
2019-02-12T02:29:00.382Z,861.48
2019-02-12T02:30:00.354Z,861.53
2019-02-12T02:31:00.116Z,861.51
2019-02-12T02:31:59.973Z,861.56
2019-02-12T02:32:59.837Z,861.61
2019-02-12T02:33:59.698Z,861.65
2019-02-12T02:34:59.559Z,861.69
2019-02-12T02:35:59.426Z,861.62
2019-02-12T02:36:59.336Z,861.73
2019-02-12T02:37:59.149Z,861.79
2019-02-12T02:38:59.017Z,861.75
2019-02-12T02:39:58.881Z,861.81
2019-02-12T02:40:58.742Z,861.80
2019-02-12T02:41:58.601Z,861.81
2019-02-12T02:42:58.463Z,861.78
2019-02-12T02:43:58.329Z,861.78
2019-02-12T02:44:58.191Z,861.88
2019-02-12T02:45:58.054Z,861.87
2019-02-12T02:46:57.917Z,861.87
2019-02-12T02:47:57.778Z,861.84
2019-02-12T02:48:57.642Z,861.89
2019-02-12T02:49:57.504Z,861.83
2019-02-12T02:50:57.365Z,861.83
2019-02-12T02:51:57.234Z,861.84
2019-02-12T02:52:57.093Z,861.88
2019-02-12T02:53:56.958Z,861.89
2019-02-12T02:54:56.818Z,861.90
2019-02-12T02:55:56.681Z,861.88
2019-02-12T02:56:56.543Z,861.86
2019-02-12T02:57:56.407Z,861.91
2019-02-12T02:58:56.268Z,861.93
2019-02-12T02:59:56.132Z,861.90
2019-02-12T03:00:55.997Z,861.89
2019-02-12T03:01:55.859Z,861.91
2019-02-12T03:02:55.722Z,861.91
2019-02-12T03:03:55.582Z,861.90
2019-02-12T03:04:55.460Z,861.91
2019-02-12T03:05:55.308Z,861.94
2019-02-12T03:06:55.172Z,861.93
2019-02-12T03:07:55.038Z,861.99
2019-02-12T03:08:54.896Z,862.02
2019-02-12T03:09:54.761Z,862.02
2019-02-12T03:10:54.638Z,862.07
2019-02-12T03:11:54.486Z,862.02
2019-02-12T03:12:54.356Z,862.09
2019-02-12T03:13:54.210Z,862.10
2019-02-12T03:14:54.073Z,862.14
2019-02-12T03:15:54.005Z,862.13
2019-02-12T03:16:53.798Z,862.11
2019-02-12T03:17:53.662Z,862.17
2019-02-12T03:18:53.547Z,862.19
2019-02-12T03:19:53.386Z,862.19
2019-02-12T03:20:53.250Z,862.19
2019-02-12T03:21:53.113Z,862.22
2019-02-12T03:22:52.974Z,862.19
2019-02-12T03:23:52.839Z,862.25
2019-02-12T03:24:52.704Z,862.25
2019-02-12T03:25:52.564Z,862.29
2019-02-12T03:26:52.428Z,862.27
2019-02-12T03:27:52.291Z,862.24
2019-02-12T03:28:52.154Z,862.22
2019-02-12T03:29:52.018Z,862.23
2019-02-12T03:30:51.879Z,862.20
2019-02-12T03:31:51.740Z,862.25
2019-02-12T03:32:51.603Z,862.30
2019-02-12T03:33:51.466Z,862.32
2019-02-12T03:34:51.330Z,862.32
2019-02-12T03:35:51.194Z,862.31
2019-02-12T03:36:51.062Z,862.31
2019-02-12T03:37:50.916Z,862.30
2019-02-12T03:38:50.782Z,862.31
2019-02-12T03:39:50.654Z,862.27
2019-02-12T03:40:50.507Z,862.27
2019-02-12T03:41:50.369Z,862.25
2019-02-12T03:42:50.233Z,862.34
2019-02-12T03:43:50.099Z,862.30
2019-02-12T03:44:49.959Z,862.29
2019-02-12T03:45:49.823Z,862.35
2019-02-12T03:46:49.685Z,862.31
2019-02-12T03:47:49.552Z,862.29
2019-02-12T03:48:49.414Z,862.30
2019-02-12T03:49:49.276Z,862.38
2019-02-12T03:50:49.144Z,862.41
2019-02-12T03:51:49.003Z,862.46
2019-02-12T03:52:48.873Z,862.47
2019-02-12T03:53:48.731Z,862.43
2019-02-12T03:54:48.593Z,862.48
2019-02-12T03:55:48.457Z,862.48
2019-02-12T03:56:48.322Z,862.49
2019-02-12T03:57:48.187Z,862.46
2019-02-12T03:58:48.047Z,862.47
2019-02-12T03:59:47.909Z,862.49
2019-02-12T04:00:47.781Z,862.50
2019-02-12T04:01:47.641Z,862.51
2019-02-12T04:02:47.501Z,862.51
2019-02-12T04:03:47.367Z,862.45
2019-02-12T04:04:47.231Z,862.46
2019-02-12T04:05:47.091Z,862.38
2019-02-12T04:06:46.957Z,862.41
2019-02-12T04:07:46.820Z,862.46
2019-02-12T04:08:46.683Z,862.44
2019-02-12T04:09:46.548Z,862.49
2019-02-12T04:10:46.412Z,862.48
2019-02-12T04:11:46.276Z,862.49
2019-02-12T04:12:46.136Z,862.47
2019-02-12T04:13:46.014Z,862.42
2019-02-12T04:14:45.866Z,862.34
2019-02-12T04:15:45.729Z,862.35
2019-02-12T04:16:45.592Z,862.37
2019-02-12T04:17:45.455Z,862.39
2019-02-12T04:18:45.323Z,862.36
2019-02-12T04:19:45.184Z,862.37
2019-02-12T04:20:45.048Z,862.36
2019-02-12T04:21:44.909Z,862.41
2019-02-12T04:22:44.772Z,862.44
2019-02-12T04:23:44.638Z,862.46
2019-02-12T04:24:44.499Z,862.48
2019-02-12T04:25:44.362Z,862.51
2019-02-12T04:26:44.226Z,862.51
2019-02-12T04:27:44.090Z,862.55
2019-02-12T04:28:43.954Z,862.56
2019-02-12T04:29:43.819Z,862.57
2019-02-12T04:30:43.680Z,862.61
2019-02-12T04:31:43.542Z,862.62
2019-02-12T04:32:43.408Z,862.61
2019-02-12T04:33:43.270Z,862.61
2019-02-12T04:34:43.132Z,862.64
2019-02-12T04:35:42.998Z,862.67
2019-02-12T04:36:42.859Z,862.65
2019-02-12T04:37:42.725Z,862.64
2019-02-12T04:38:42.588Z,862.65
2019-02-12T04:39:42.450Z,862.65
2019-02-12T04:40:42.312Z,862.66
2019-02-12T04:41:42.179Z,862.70
2019-02-12T04:42:42.038Z,862.73
2019-02-12T04:43:41.902Z,862.76
2019-02-12T04:44:41.769Z,862.78
2019-02-12T04:45:41.631Z,862.76
2019-02-12T04:46:41.790Z,862.73
2019-02-12T04:47:41.394Z,862.66
2019-02-12T04:48:41.232Z,862.65
2019-02-12T04:49:41.083Z,862.63
2019-02-12T04:50:40.945Z,862.64
2019-02-12T04:51:40.812Z,862.67
2019-02-12T04:52:40.694Z,862.64
2019-02-12T04:53:40.535Z,862.64
2019-02-12T04:54:40.397Z,862.67
2019-02-12T04:55:40.261Z,862.69
2019-02-12T04:56:40.124Z,862.74
2019-02-12T04:57:39.994Z,862.81
2019-02-12T04:58:39.851Z,862.77
2019-02-12T04:59:39.712Z,862.70
2019-02-12T05:00:39.576Z,862.68
2019-02-12T05:01:39.440Z,862.67
2019-02-12T05:02:39.302Z,862.67
2019-02-12T05:03:39.169Z,862.69
2019-02-12T05:04:39.026Z,862.68
2019-02-12T05:05:38.892Z,862.69
2019-02-12T05:06:38.767Z,862.74
2019-02-12T05:07:38.632Z,862.73
2019-02-12T05:08:38.482Z,862.74
2019-02-12T05:09:38.341Z,862.75
2019-02-12T05:10:38.203Z,862.73
2019-02-12T05:11:38.065Z,862.79
2019-02-12T05:12:37.928Z,862.84
2019-02-12T05:13:37.793Z,862.80
2019-02-12T05:14:37.685Z,862.79
2019-02-12T05:15:37.515Z,862.82
2019-02-12T05:16:37.389Z,862.78
2019-02-12T05:17:37.243Z,862.81
2019-02-12T05:18:37.104Z,862.79
2019-02-12T05:19:36.967Z,862.78
2019-02-12T05:20:36.832Z,862.85
2019-02-12T05:21:36.692Z,862.90
2019-02-12T05:22:43.216Z,862.93
2019-02-12T05:23:36.425Z,862.94
2019-02-12T05:24:36.280Z,862.95
2019-02-12T05:25:36.146Z,862.96
2019-02-12T05:26:36.007Z,863.03
2019-02-12T05:27:35.874Z,863.05
2019-02-12T05:28:35.731Z,863.05
2019-02-12T05:29:35.613Z,863.01
2019-02-12T05:30:35.486Z,863.00
2019-02-12T05:31:35.348Z,863.02
2019-02-12T05:32:35.215Z,863.00
2019-02-12T05:33:35.057Z,863.01
2019-02-12T05:34:34.963Z,863.06
2019-02-12T05:35:34.792Z,863.06
2019-02-12T05:36:34.658Z,863.14
2019-02-12T05:37:34.495Z,863.18
2019-02-12T05:38:34.381Z,863.17
2019-02-12T05:39:34.248Z,863.19
2019-02-12T05:40:34.115Z,863.22
2019-02-12T05:41:33.956Z,863.22
2019-02-12T05:42:33.831Z,863.23
2019-02-12T05:43:33.702Z,863.25
2019-02-12T05:44:33.534Z,863.21
2019-02-12T05:45:33.422Z,863.24
2019-02-12T05:46:33.276Z,863.22
2019-02-12T05:47:33.133Z,863.19
2019-02-12T05:48:33.005Z,863.22
2019-02-12T05:49:32.889Z,863.23
2019-02-12T05:50:32.706Z,863.23
2019-02-12T05:51:32.579Z,863.23
2019-02-12T05:52:32.467Z,863.22
2019-02-12T05:53:32.294Z,863.27
2019-02-12T05:54:32.170Z,863.25
2019-02-12T05:55:32.047Z,863.25
2019-02-12T05:56:31.895Z,863.20
2019-02-12T05:57:31.765Z,863.21
2019-02-12T05:58:31.616Z,863.18
2019-02-12T05:59:31.490Z,863.18
2019-02-12T06:00:31.334Z,863.16
2019-02-12T06:01:31.197Z,863.14
2019-02-12T06:02:31.075Z,863.16
2019-02-12T06:03:30.931Z,863.13
2019-02-12T06:04:30.784Z,863.11
2019-02-12T06:05:30.664Z,863.04
2019-02-12T06:06:30.543Z,863.14
2019-02-12T06:07:30.402Z,863.16
2019-02-12T06:08:30.257Z,863.16
2019-02-12T06:09:30.128Z,863.22
2019-02-12T06:10:29.974Z,863.24
2019-02-12T06:11:29.831Z,863.22
2019-02-12T06:12:29.700Z,863.25
2019-02-12T06:13:29.566Z,863.26
2019-02-12T06:14:29.424Z,863.26
2019-02-12T06:15:29.294Z,863.27
2019-02-12T06:16:29.153Z,863.27
2019-02-12T06:17:28.997Z,863.26
2019-02-12T06:18:28.866Z,863.28
2019-02-12T06:19:28.741Z,863.29
2019-02-12T06:20:28.614Z,863.25
2019-02-12T06:21:28.470Z,863.26
2019-02-12T06:22:28.327Z,863.27
2019-02-12T06:23:28.171Z,863.30
2019-02-12T06:24:28.057Z,863.32
2019-02-12T06:25:27.929Z,863.28
2019-02-12T06:26:27.760Z,863.27
2019-02-12T06:27:27.634Z,863.29
2019-02-12T06:28:27.489Z,863.28
2019-02-12T06:29:27.349Z,863.37
2019-02-12T06:30:27.207Z,863.35
2019-02-12T06:31:27.079Z,863.39
2019-02-12T06:32:26.933Z,863.40
2019-02-12T06:33:26.814Z,863.41
2019-02-12T06:34:26.658Z,863.41
2019-02-12T06:35:26.517Z,863.37
2019-02-12T06:36:26.411Z,863.39
2019-02-12T06:37:26.241Z,863.38
2019-02-12T06:38:26.112Z,863.37
2019-02-12T06:39:25.969Z,863.40
2019-02-12T06:40:25.830Z,863.41
2019-02-12T06:41:25.693Z,863.42
2019-02-12T06:42:25.579Z,863.45
2019-02-12T06:43:25.416Z,863.43
2019-02-12T06:44:25.281Z,863.45
2019-02-12T06:45:25.143Z,863.42
2019-02-12T06:46:25.009Z,863.39
2019-02-12T06:47:24.866Z,863.41
2019-02-12T06:48:24.729Z,863.43
2019-02-12T06:49:24.593Z,863.42
2019-02-12T06:50:24.456Z,863.45
2019-02-12T06:51:24.314Z,863.47
2019-02-12T06:52:24.178Z,863.48
2019-02-12T06:53:24.045Z,863.47
2019-02-12T06:54:23.900Z,863.46
2019-02-12T06:55:23.765Z,863.49
2019-02-12T06:56:23.632Z,863.46
2019-02-12T06:57:23.490Z,863.51
2019-02-12T06:58:23.353Z,863.53
2019-02-12T06:59:23.211Z,863.53
2019-02-12T07:00:23.076Z,863.54
2019-02-12T07:01:22.937Z,863.59
2019-02-12T07:02:22.798Z,863.60
2019-02-12T07:03:22.660Z,863.60
2019-02-12T07:04:22.525Z,863.60
2019-02-12T07:05:22.385Z,863.55
2019-02-12T07:06:22.246Z,863.58
2019-02-12T07:07:22.109Z,863.58
2019-02-12T07:08:21.977Z,863.56
2019-02-12T07:09:21.839Z,863.60
2019-02-12T07:10:21.716Z,863.60
2019-02-12T07:11:21.558Z,863.60
2019-02-12T07:12:21.426Z,863.59
2019-02-12T07:13:21.284Z,863.64
2019-02-12T07:14:21.196Z,863.63
2019-02-12T07:15:21.016Z,863.57
2019-02-12T07:16:20.871Z,863.56
2019-02-12T07:17:20.734Z,863.52
2019-02-12T07:18:20.593Z,863.52
2019-02-12T07:19:20.456Z,863.57
2019-02-12T07:20:20.327Z,863.59
2019-02-12T07:21:20.182Z,863.61
2019-02-12T07:22:20.046Z,863.64
2019-02-12T07:23:21.355Z,863.65
2019-02-12T07:24:19.770Z,863.71
2019-02-12T07:25:19.632Z,863.72
2019-02-12T07:26:19.494Z,863.70
2019-02-12T07:27:19.356Z,863.73
2019-02-12T07:28:19.225Z,863.74
2019-02-12T07:29:19.082Z,863.80
2019-02-12T07:30:18.954Z,863.80
2019-02-12T07:31:18.804Z,863.84
2019-02-12T07:32:18.669Z,863.87
2019-02-12T07:33:18.534Z,863.88
2019-02-12T07:34:18.393Z,863.86
2019-02-12T07:35:18.266Z,863.91
2019-02-12T07:36:18.126Z,863.89
2019-02-12T07:37:17.981Z,863.94
2019-02-12T07:38:17.843Z,863.97
2019-02-12T07:39:17.706Z,863.94
2019-02-12T07:40:17.735Z,863.92
2019-02-12T07:41:20.076Z,863.92
2019-02-12T07:42:17.297Z,863.96
2019-02-12T07:43:17.156Z,863.97
2019-02-12T07:44:17.019Z,863.97
2019-02-12T07:45:16.879Z,863.99
2019-02-12T07:46:16.744Z,864.00
2019-02-12T07:47:16.614Z,864.00
2019-02-12T07:48:16.469Z,864.01
2019-02-12T07:49:16.331Z,864.01
2019-02-12T07:50:16.192Z,864.01
2019-02-12T07:51:16.057Z,864.04
2019-02-12T07:52:15.918Z,864.00
2019-02-12T07:53:15.780Z,864.05
2019-02-12T07:54:15.643Z,864.04
2019-02-12T07:55:15.509Z,864.12
2019-02-12T07:56:15.372Z,864.12
2019-02-12T07:57:15.233Z,864.11
2019-02-12T07:58:15.096Z,864.14
2019-02-12T07:59:14.959Z,864.13
2019-02-12T08:00:14.820Z,864.12
2019-02-12T08:01:14.706Z,864.16
2019-02-12T08:02:14.560Z,864.11
2019-02-12T08:03:14.414Z,864.18
2019-02-12T08:04:14.273Z,864.18
2019-02-12T08:05:14.135Z,864.15
2019-02-12T08:06:13.998Z,864.17
2019-02-12T08:07:13.861Z,864.20
2019-02-12T08:08:13.773Z,864.21
2019-02-12T08:09:13.586Z,864.26
2019-02-12T08:10:15.329Z,864.27
2019-02-12T08:11:13.314Z,864.25
2019-02-12T08:12:13.175Z,864.28
2019-02-12T08:13:13.038Z,864.26
2019-02-12T08:14:12.909Z,864.30
2019-02-12T08:15:12.771Z,864.30
2019-02-12T08:16:12.631Z,864.29
2019-02-12T08:17:12.493Z,864.26
2019-02-12T08:18:12.355Z,864.26
2019-02-12T08:19:12.219Z,864.34
2019-02-12T08:20:12.081Z,864.28
2019-02-12T08:21:11.945Z,864.30
2019-02-12T08:22:14.121Z,864.30
2019-02-12T08:23:11.672Z,864.34
2019-02-12T08:24:11.547Z,864.36
2019-02-12T08:25:11.400Z,864.33
2019-02-12T08:26:11.264Z,864.34
2019-02-12T08:27:11.128Z,864.34
2019-02-12T08:28:10.990Z,864.33
2019-02-12T08:29:10.864Z,864.31
2019-02-12T08:30:10.754Z,864.36
2019-02-12T08:31:10.585Z,864.35
2019-02-12T08:32:10.449Z,864.37
2019-02-12T08:33:10.315Z,864.41
2019-02-12T08:34:10.187Z,864.37
2019-02-12T08:35:10.047Z,864.38
2019-02-12T08:36:09.913Z,864.34
2019-02-12T08:37:09.778Z,864.34
2019-02-12T08:38:09.661Z,864.36
2019-02-12T08:39:09.509Z,864.41
2019-02-12T08:40:09.376Z,864.34
2019-02-12T08:41:09.245Z,864.36
2019-02-12T08:42:09.117Z,864.34
2019-02-12T08:43:08.977Z,864.33
2019-02-12T08:44:08.845Z,864.35
2019-02-12T08:45:08.716Z,864.33
2019-02-12T08:46:08.578Z,864.31
2019-02-12T08:47:08.453Z,864.28
2019-02-12T08:48:08.315Z,864.28
2019-02-12T08:49:08.182Z,864.26
2019-02-12T08:50:08.051Z,864.31
2019-02-12T08:51:07.917Z,864.29
2019-02-12T08:52:07.797Z,864.32
2019-02-12T08:53:07.655Z,864.29
2019-02-12T08:54:07.526Z,864.32
2019-02-12T08:55:07.390Z,864.33
2019-02-12T08:56:07.261Z,864.26
2019-02-12T08:57:07.129Z,864.28
2019-02-12T08:58:06.998Z,864.30
2019-02-12T08:59:06.870Z,864.33
2019-02-12T09:00:06.734Z,864.28
2019-02-12T09:01:06.605Z,864.31
2019-02-12T09:02:06.475Z,864.34
2019-02-12T09:03:06.344Z,864.36
2019-02-12T09:04:06.214Z,864.31
2019-02-12T09:05:06.082Z,864.30
2019-02-12T09:06:05.952Z,864.32
2019-02-12T09:07:05.827Z,864.32
2019-02-12T09:08:05.692Z,864.34
2019-02-12T09:09:05.560Z,864.38
2019-02-12T09:10:05.431Z,864.37
2019-02-12T09:11:05.296Z,864.37
2019-02-12T09:12:05.166Z,864.37
2019-02-12T09:13:05.037Z,864.38
2019-02-12T09:14:04.903Z,864.38
2019-02-12T09:15:04.775Z,864.43
2019-02-12T09:16:04.642Z,864.48
2019-02-12T09:17:04.515Z,864.50
2019-02-12T09:18:04.382Z,864.46
2019-02-12T09:19:04.252Z,864.43
2019-02-12T09:20:04.118Z,864.43
2019-02-12T09:21:03.991Z,864.47
2019-02-12T09:22:03.856Z,864.45
2019-02-12T09:23:03.726Z,864.47
2019-02-12T09:24:03.732Z,864.46
2019-02-12T09:25:03.470Z,864.45
2019-02-12T09:26:03.335Z,864.42
2019-02-12T09:27:03.205Z,864.44
2019-02-12T09:28:03.077Z,864.47
2019-02-12T09:29:02.943Z,864.46
2019-02-12T09:30:02.813Z,864.49
2019-02-12T09:31:02.683Z,864.49
2019-02-12T09:32:02.552Z,864.47
2019-02-12T09:33:02.427Z,864.49
2019-02-12T09:34:02.293Z,864.53
2019-02-12T09:35:02.168Z,864.54
2019-02-12T09:36:02.045Z,864.54
2019-02-12T09:37:01.905Z,864.56
2019-02-12T09:38:01.769Z,864.56
2019-02-12T09:39:01.640Z,864.56
2019-02-12T09:40:01.509Z,864.59
2019-02-12T09:41:01.378Z,864.60
2019-02-12T09:42:01.244Z,864.62
2019-02-12T09:43:01.117Z,864.61
2019-02-12T09:44:00.991Z,864.63
2019-02-12T09:45:00.855Z,864.63
2019-02-12T09:46:00.722Z,864.60
2019-02-12T09:47:00.604Z,864.64
2019-02-12T09:48:00.471Z,864.65
2019-02-12T09:49:00.395Z,864.69
2019-02-12T09:50:00.340Z,864.72
2019-02-12T09:51:00.073Z,864.72
2019-02-12T09:51:59.938Z,864.72
2019-02-12T09:52:59.810Z,864.74
2019-02-12T09:54:08.429Z,864.73
2019-02-12T09:54:59.557Z,864.68
2019-02-12T09:55:59.421Z,864.70
2019-02-12T09:56:59.298Z,864.69
2019-02-12T09:57:59.157Z,864.70
2019-02-12T09:58:59.024Z,864.72
2019-02-12T09:59:58.895Z,864.75
2019-02-12T10:00:58.783Z,864.74
2019-02-12T10:01:58.639Z,864.74
2019-02-12T10:02:58.504Z,864.75
2019-02-12T10:03:58.372Z,864.74
2019-02-12T10:04:58.241Z,864.78
2019-02-12T10:05:58.126Z,864.74
2019-02-12T10:06:57.983Z,864.75
2019-02-12T10:07:57.852Z,864.74
2019-02-12T10:08:57.724Z,864.73
2019-02-12T10:09:57.588Z,864.75
2019-02-12T10:10:57.457Z,864.73
2019-02-12T10:11:57.330Z,864.76
2019-02-12T10:12:57.204Z,864.75
2019-02-12T10:13:57.067Z,864.75
2019-02-12T10:14:56.935Z,864.80
2019-02-12T10:15:56.804Z,864.78
2019-02-12T10:16:56.674Z,864.78
2019-02-12T10:17:56.544Z,864.82
2019-02-12T10:18:56.413Z,864.81
2019-02-12T10:19:56.289Z,864.85
2019-02-12T10:20:56.154Z,864.84
2019-02-12T10:21:56.024Z,864.83
2019-02-12T10:22:55.891Z,864.84
2019-02-12T10:23:55.759Z,864.87
2019-02-12T10:24:55.629Z,864.88
2019-02-12T10:25:55.497Z,864.92
2019-02-12T10:26:55.369Z,864.93
2019-02-12T10:27:55.240Z,864.94
2019-02-12T10:28:55.106Z,864.92
2019-02-12T10:29:54.978Z,864.91
2019-02-12T10:30:54.847Z,864.87
2019-02-12T10:31:54.715Z,864.90
2019-02-12T10:32:54.583Z,864.93
2019-02-12T10:33:54.453Z,864.93
2019-02-12T10:34:54.329Z,864.91
2019-02-12T10:35:54.203Z,864.94
2019-02-12T10:36:54.065Z,864.94
2019-02-12T10:37:53.930Z,864.93
2019-02-12T10:38:53.802Z,864.89
2019-02-12T10:39:53.676Z,864.88
2019-02-12T10:40:53.541Z,864.90
2019-02-12T10:41:53.494Z,864.92
2019-02-12T10:42:53.283Z,864.90
2019-02-12T10:43:53.196Z,864.91
2019-02-12T10:44:53.023Z,864.91
2019-02-12T10:45:52.893Z,864.88
2019-02-12T10:46:52.765Z,864.89
2019-02-12T10:47:52.636Z,864.90
2019-02-12T10:48:52.874Z,864.93
2019-02-12T10:49:52.378Z,864.96
2019-02-12T10:50:52.247Z,864.98
2019-02-12T10:51:52.119Z,864.93
2019-02-12T10:52:51.989Z,864.93
2019-02-12T10:53:51.856Z,864.95
2019-02-12T10:54:51.733Z,864.91
2019-02-12T10:55:51.605Z,864.87
2019-02-12T10:56:51.471Z,864.87
2019-02-12T10:57:51.348Z,864.85
2019-02-12T10:58:51.212Z,864.88
2019-02-12T10:59:51.089Z,864.91
2019-02-12T11:00:50.955Z,864.91
2019-02-12T11:01:50.824Z,864.92
2019-02-12T11:02:50.695Z,864.91
2019-02-12T11:03:50.594Z,864.94
2019-02-12T11:04:50.437Z,864.95
2019-02-12T11:05:50.308Z,864.97
2019-02-12T11:06:50.180Z,864.97
2019-02-12T11:07:50.049Z,864.96
2019-02-12T11:08:49.923Z,864.94
2019-02-12T11:09:50.455Z,864.93
2019-02-12T11:10:49.661Z,864.92
2019-02-12T11:11:49.533Z,864.93
2019-02-12T11:12:49.539Z,864.91
2019-02-12T11:13:49.274Z,864.92
2019-02-12T11:14:49.145Z,864.90
2019-02-12T11:15:49.027Z,864.90
2019-02-12T11:16:48.889Z,864.91
2019-02-12T11:17:48.764Z,864.93
2019-02-12T11:18:48.706Z,864.88
2019-02-12T11:19:48.496Z,864.92
2019-02-12T11:20:48.369Z,864.86
2019-02-12T11:21:48.238Z,864.84
2019-02-12T11:22:48.108Z,864.82
2019-02-12T11:23:47.980Z,864.82
2019-02-12T11:24:47.852Z,864.78
2019-02-12T11:25:47.728Z,864.76
2019-02-12T11:26:47.593Z,864.77
2019-02-12T11:27:47.467Z,864.78
2019-02-12T11:28:47.336Z,864.74
2019-02-12T11:29:47.201Z,864.75
2019-02-12T11:30:47.074Z,864.77
2019-02-12T11:31:46.946Z,864.71
2019-02-12T11:32:46.814Z,864.73
2019-02-12T11:33:46.682Z,864.73
2019-02-12T11:34:46.553Z,864.69
2019-02-12T11:35:46.432Z,864.65
2019-02-12T11:36:46.295Z,864.64
2019-02-12T11:37:46.164Z,864.64
2019-02-12T11:38:46.037Z,864.66
2019-02-12T11:39:45.905Z,864.68
2019-02-12T11:40:45.776Z,864.67
2019-02-12T11:41:45.644Z,864.66
2019-02-12T11:42:45.516Z,864.67
2019-02-12T11:43:45.386Z,864.66
2019-02-12T11:44:45.258Z,864.57
2019-02-12T11:45:45.280Z,864.67
2019-02-12T11:46:45.000Z,864.70
2019-02-12T11:47:44.870Z,864.68
2019-02-12T11:48:44.811Z,864.65
2019-02-12T11:49:44.609Z,864.67
2019-02-12T11:50:44.480Z,864.70
2019-02-12T11:51:44.348Z,864.67
2019-02-12T11:52:44.220Z,864.69
2019-02-12T11:53:44.642Z,864.70
2019-02-12T11:54:44.083Z,864.69
2019-02-12T11:55:43.831Z,864.71
2019-02-12T11:56:43.702Z,864.71
2019-02-12T11:57:43.570Z,864.70
2019-02-12T11:58:43.444Z,864.64
2019-02-12T11:59:43.313Z,864.64
2019-02-12T12:00:43.192Z,864.62
2019-02-12T12:01:43.051Z,864.61
2019-02-12T12:02:42.924Z,864.59
2019-02-12T12:03:42.793Z,864.62
2019-02-12T12:04:42.665Z,864.61
2019-02-12T12:05:42.561Z,864.62
2019-02-12T12:06:42.408Z,864.61
2019-02-12T12:07:42.276Z,864.58
2019-02-12T12:08:42.150Z,864.59
2019-02-12T12:09:42.018Z,864.59
2019-02-12T12:10:41.889Z,864.60
2019-02-12T12:11:41.838Z,864.57
2019-02-12T12:12:41.630Z,864.59
2019-02-12T12:13:41.500Z,864.55
2019-02-12T12:14:41.370Z,864.55
2019-02-12T12:15:41.242Z,864.55
2019-02-12T12:16:41.116Z,864.56
2019-02-12T12:17:40.986Z,864.55
2019-02-12T12:18:40.869Z,864.56
2019-02-12T12:19:40.725Z,864.56
2019-02-12T12:20:40.596Z,864.60
2019-02-12T12:21:40.467Z,864.59
2019-02-12T12:22:40.341Z,864.57
2019-02-12T12:23:40.239Z,864.58
2019-02-12T12:24:40.079Z,864.58
2019-02-12T12:25:39.949Z,864.59
2019-02-12T12:26:39.824Z,864.57